Time;durP1;ratioP1;P1;durP2;ratioP2;P2;SDS_P1;SDS_P2;PMS_P1;PMS_P2;Temp;Humidity;BMP_temperature;BMP_pressure;BME280_temperature;BME280_humidity;BME280_pressure;Samples;Min_cycle;Max_cycle;Signal;HPM_P1;HPM_P2
2021/11/26 00:02:06;;;;;;;3.57;1.10;;;;;;;;;;5017982;28;20187;-73
2021/11/26 00:04:31;;;;;;;3.47;1.00;;;;;;;;;;5015561;28;20829;-72
2021/11/26 00:06:57;;;;;;;1.93;0.70;;;;;;;;;;5016537;28;20691;-71
2021/11/26 00:09:22;;;;;;;1.70;0.90;;;;;;;;;;5014172;28;20196;-74
2021/11/26 00:11:48;;;;;;;1.67;0.80;;;;;;;;;;5014475;28;20179;-73
2021/11/26 00:14:19;;;;;;;2.77;0.80;;;;;;;;;;5016543;28;20265;-73
2021/11/26 00:16:47;;;;;;;2.77;1.10;;;;;;;;;;5019230;28;20549;-73
2021/11/26 00:19:12;;;;;;;3.07;1.57;;;;;;;;;;5014926;28;20214;-73
2021/11/26 00:21:38;;;;;;;5.60;1.90;;;;;;;;;;5017699;28;20213;-73
2021/11/26 00:24:05;;;;;;;2.83;1.53;;;;;;;;;;5015245;28;20217;-73
2021/11/26 00:26:30;;;;;;;3.30;1.90;;;;;;;;;;5017778;28;20183;-72
2021/11/26 00:28:55;;;;;;;3.33;1.70;;;;;;;;;;5020403;28;20207;-73
2021/11/26 00:31:21;;;;;;;2.57;1.60;;;;;;;;;;5018178;28;20937;-73
2021/11/26 00:33:46;;;;;;;3.93;1.50;;;;;;;;;;5017364;28;20190;-72
2021/11/26 00:36:11;;;;;;;2.63;1.50;;;;;;;;;;5015126;28;20189;-74
2021/11/26 00:38:36;;;;;;;7.37;2.30;;;;;;;;;;5016844;28;20201;-73
2021/11/26 00:41:02;;;;;;;3.83;1.93;;;;;;;;;;5014068;28;20197;-73
2021/11/26 00:43:27;;;;;;;7.67;2.50;;;;;;;;;;5016666;28;20259;-74
2021/11/26 00:45:52;;;;;;;3.13;1.30;;;;;;;;;;5014881;28;20240;-73
2021/11/26 00:48:17;;;;;;;2.40;1.17;;;;;;;;;;5025232;28;20178;-72
2021/11/26 00:50:43;;;;;;;3.20;1.10;;;;;;;;;;5031169;28;20174;-73
2021/11/26 00:53:08;;;;;;;2.77;1.27;;;;;;;;;;5028130;28;20636;-73
2021/11/26 00:55:33;;;;;;;4.77;1.00;;;;;;;;;;5034070;28;20174;-73
2021/11/26 00:57:59;;;;;;;4.20;1.10;;;;;;;;;;5029538;28;20182;-72
2021/11/26 01:00:24;;;;;;;7.43;0.90;;;;;;;;;;5022495;28;20211;-73
2021/11/26 01:02:49;;;;;;;3.83;1.13;;;;;;;;;;5019431;28;20203;-73
2021/11/26 01:05:15;;;;;;;2.37;1.57;;;;;;;;;;5035974;28;20261;-72
2021/11/26 01:07:41;;;;;;;4.70;1.23;;;;;;;;;;5042091;28;20181;-73
2021/11/26 01:10:08;;;;;;;2.37;1.33;;;;;;;;;;5042894;28;20584;-74
2021/11/26 01:12:35;;;;;;;2.90;1.67;;;;;;;;;;5053540;28;20246;-73
2021/11/26 01:15:00;;;;;;;7.53;2.10;;;;;;;;;;5038340;28;20213;-71
2021/11/26 01:17:25;;;;;;;5.33;2.30;;;;;;;;;;5051866;28;20182;-71
2021/11/26 01:19:50;;;;;;;7.23;2.40;;;;;;;;;;5034355;28;20214;-71
2021/11/26 01:22:15;;;;;;;3.53;2.57;;;;;;;;;;5031310;28;21824;-72
2021/11/26 01:24:41;;;;;;;6.10;2.03;;;;;;;;;;5024422;28;20233;-72
2021/11/26 01:27:07;;;;;;;4.53;1.83;;;;;;;;;;5025006;28;20262;-73
2021/11/26 01:29:33;;;;;;;6.87;1.73;;;;;;;;;;5025328;28;20272;-72
2021/11/26 01:31:59;;;;;;;3.63;1.53;;;;;;;;;;5025010;28;20182;-72
2021/11/26 01:34:24;;;;;;;5.77;1.27;;;;;;;;;;5022368;28;20628;-73
2021/11/26 01:36:50;;;;;;;4.30;1.87;;;;;;;;;;5023460;28;20175;-72
2021/11/26 01:39:15;;;;;;;2.67;1.10;;;;;;;;;;5022898;28;20797;-71
2021/11/26 01:41:42;;;;;;;3.63;1.20;;;;;;;;;;5022449;28;20177;-72
2021/11/26 01:44:08;;;;;;;7.13;1.80;;;;;;;;;;5028502;28;20294;-71
2021/11/26 01:46:37;;;;;;;3.87;0.90;;;;;;;;;;5029417;28;20265;-72
2021/11/26 01:49:02;;;;;;;3.87;1.37;;;;;;;;;;5028969;28;20278;-72
2021/11/26 01:51:27;;;;;;;2.13;1.00;;;;;;;;;;5028673;28;20265;-72
2021/11/26 01:53:52;;;;;;;4.03;1.10;;;;;;;;;;5025712;28;20217;-72
2021/11/26 01:56:17;;;;;;;2.57;2.03;;;;;;;;;;5030255;28;20535;-72
2021/11/26 01:58:43;;;;;;;3.50;0.90;;;;;;;;;;5026025;28;20226;-71
2021/11/26 02:01:09;;;;;;;4.00;0.80;;;;;;;;;;5029144;28;20178;-72
2021/11/26 02:03:35;;;;;;;2.63;0.90;;;;;;;;;;5030657;28;20194;-72
2021/11/26 02:06:00;;;;;;;2.60;1.23;;;;;;;;;;5027781;28;20240;-72
2021/11/26 02:08:25;;;;;;;5.30;2.57;;;;;;;;;;5029451;28;20629;-72
2021/11/26 02:10:50;;;;;;;3.70;1.10;;;;;;;;;;5026550;28;20719;-72
2021/11/26 02:13:15;;;;;;;3.80;1.70;;;;;;;;;;5028835;28;20257;-72
2021/11/26 02:15:43;;;;;;;5.57;1.90;;;;;;;;;;5026710;28;20186;-72
2021/11/26 02:18:08;;;;;;;6.03;2.60;;;;;;;;;;5026268;28;20197;-71
2021/11/26 02:20:34;;;;;;;5.23;2.77;;;;;;;;;;5074114;22;20228;-73
2021/11/26 02:22:59;;;;;;;6.27;2.50;;;;;;;;;;5061226;28;20280;-72
2021/11/26 02:25:25;;;;;;;4.17;2.30;;;;;;;;;;5065282;28;20204;-72
2021/11/26 02:27:51;;;;;;;5.23;3.60;;;;;;;;;;5066779;28;21929;-72
2021/11/26 02:30:16;;;;;;;3.90;2.30;;;;;;;;;;5061782;28;20661;-73
2021/11/26 02:32:46;;;;;;;7.27;1.63;;;;;;;;;;5064898;28;20184;-73
2021/11/26 02:35:12;;;;;;;5.83;2.20;;;;;;;;;;5065444;28;20251;-72
2021/11/26 02:37:39;;;;;;;5.27;2.40;;;;;;;;;;5068738;28;20181;-72
2021/11/26 02:40:05;;;;;;;3.23;2.30;;;;;;;;;;5060984;28;20584;-73
2021/11/26 02:42:30;;;;;;;3.70;2.20;;;;;;;;;;5066187;28;20204;-71
2021/11/26 02:44:55;;;;;;;2.90;2.30;;;;;;;;;;5066562;28;20177;-73
2021/11/26 02:47:20;;;;;;;4.73;2.03;;;;;;;;;;5068812;28;20176;-71
2021/11/26 02:49:45;;;;;;;5.30;2.00;;;;;;;;;;5061997;28;20747;-72
2021/11/26 02:52:11;;;;;;;5.70;2.30;;;;;;;;;;5063454;28;20256;-73
2021/11/26 02:54:36;;;;;;;5.87;2.03;;;;;;;;;;5061512;28;20255;-73
2021/11/26 02:57:01;;;;;;;3.77;1.77;;;;;;;;;;5063872;28;20173;-72
2021/11/26 02:59:26;;;;;;;5.60;1.30;;;;;;;;;;5067431;28;20685;-72
2021/11/26 03:01:51;;;;;;;5.77;1.10;;;;;;;;;;5067498;28;20185;-72
2021/11/26 03:04:17;;;;;;;3.30;0.90;;;;;;;;;;5060939;28;20289;-72
2021/11/26 03:06:42;;;;;;;2.33;0.80;;;;;;;;;;5064430;28;20188;-73
2021/11/26 03:09:07;;;;;;;8.43;1.23;;;;;;;;;;5061737;28;20234;-72
2021/11/26 03:11:32;;;;;;;6.27;1.17;;;;;;;;;;5076021;28;20173;-72
2021/11/26 03:13:58;;;;;;;4.13;1.00;;;;;;;;;;5063713;28;20223;-71
2021/11/26 03:16:23;;;;;;;3.77;1.47;;;;;;;;;;5063375;28;20204;-72
2021/11/26 03:18:48;;;;;;;3.13;0.90;;;;;;;;;;5064892;28;20197;-72
2021/11/26 03:21:13;;;;;;;6.17;0.87;;;;;;;;;;5065411;28;20260;-72
2021/11/26 03:23:39;;;;;;;8.63;1.83;;;;;;;;;;5056101;28;20201;-72
2021/11/26 03:26:04;;;;;;;4.30;0.70;;;;;;;;;;5066663;28;20523;-72
2021/11/26 03:28:29;;;;;;;5.20;1.00;;;;;;;;;;5066432;28;20181;-72
2021/11/26 03:30:55;;;;;;;5.30;1.27;;;;;;;;;;5071027;28;20297;-72
2021/11/26 03:33:20;;;;;;;6.70;1.20;;;;;;;;;;5069134;28;20177;-74
2021/11/26 03:35:45;;;;;;;2.23;0.70;;;;;;;;;;5066190;28;20620;-72
2021/11/26 03:38:11;;;;;;;2.63;0.83;;;;;;;;;;5071018;28;20185;-72
2021/11/26 03:40:36;;;;;;;2.23;0.83;;;;;;;;;;5067212;28;20208;-72
2021/11/26 03:43:01;;;;;;;3.10;1.43;;;;;;;;;;5070455;28;20197;-72
2021/11/26 03:45:29;;;;;;;1.97;1.10;;;;;;;;;;5069059;28;20258;-74
2021/11/26 03:47:54;;;;;;;6.27;1.40;;;;;;;;;;5064719;28;20238;-72
2021/11/26 03:50:19;;;;;;;2.80;1.00;;;;;;;;;;5069611;28;20197;-73
2021/11/26 03:52:45;;;;;;;3.43;1.30;;;;;;;;;;5070362;28;20187;-71
2021/11/26 03:55:13;;;;;;;5.57;2.27;;;;;;;;;;5072157;28;20188;-72
2021/11/26 03:57:39;;;;;;;3.47;1.00;;;;;;;;;;5070461;28;20181;-72
2021/11/26 04:00:06;;;;;;;4.37;1.53;;;;;;;;;;5069913;28;20280;-73
2021/11/26 04:02:31;;;;;;;6.57;1.60;;;;;;;;;;5066849;28;20205;-71
2021/11/26 04:04:57;;;;;;;4.57;2.00;;;;;;;;;;5070294;28;20528;-71
2021/11/26 04:07:22;;;;;;;4.03;1.57;;;;;;;;;;5070574;28;20174;-71
2021/11/26 04:09:47;;;;;;;4.43;1.30;;;;;;;;;;5071478;28;20262;-72
2021/11/26 04:12:12;;;;;;;3.60;1.40;;;;;;;;;;5070397;28;20200;-72
2021/11/26 04:14:37;;;;;;;4.03;1.73;;;;;;;;;;5070790;28;20181;-72
2021/11/26 04:17:05;;;;;;;3.33;1.13;;;;;;;;;;5070233;28;20234;-71
2021/11/26 04:19:30;;;;;;;2.30;1.37;;;;;;;;;;5069207;28;20295;-71
2021/11/26 04:21:55;;;;;;;3.40;1.37;;;;;;;;;;5072202;28;20256;-72
2021/11/26 04:24:20;;;;;;;2.07;1.30;;;;;;;;;;5069453;28;20200;-71
2021/11/26 04:26:45;;;;;;;3.03;1.40;;;;;;;;;;5065910;28;20257;-72
2021/11/26 04:29:10;;;;;;;2.37;1.40;;;;;;;;;;5063493;28;20205;-71
2021/11/26 04:31:38;;;;;;;3.73;1.40;;;;;;;;;;5072605;28;20187;-72
2021/11/26 04:34:04;;;;;;;3.33;1.70;;;;;;;;;;5071709;28;20242;-71
2021/11/26 04:36:29;;;;;;;2.27;1.73;;;;;;;;;;5069881;28;20577;-71
2021/11/26 04:38:54;;;;;;;6.07;2.00;;;;;;;;;;5065476;28;20207;-71
2021/11/26 04:41:19;;;;;;;4.77;1.77;;;;;;;;;;5072105;28;20256;-71
2021/11/26 04:43:44;;;;;;;3.80;2.20;;;;;;;;;;5063064;28;20751;-72
2021/11/26 04:46:09;;;;;;;2.60;2.17;;;;;;;;;;5061336;28;20178;-71
2021/11/26 04:48:35;;;;;;;8.00;2.10;;;;;;;;;;5068190;28;20173;-71
2021/11/26 04:51:00;;;;;;;5.20;2.13;;;;;;;;;;5071372;28;20180;-71
2021/11/26 04:53:25;;;;;;;4.80;1.93;;;;;;;;;;5068774;28;20185;-74
2021/11/26 04:55:50;;;;;;;5.23;2.17;;;;;;;;;;5067457;28;20173;-72
2021/11/26 04:58:16;;;;;;;3.63;2.07;;;;;;;;;;5070832;28;20192;-71
2021/11/26 05:00:41;;;;;;;3.80;2.10;;;;;;;;;;5071971;28;20205;-71
2021/11/26 05:03:07;;;;;;;2.93;2.20;;;;;;;;;;5085350;28;20570;-74
2021/11/26 05:05:32;;;;;;;6.63;2.50;;;;;;;;;;5066096;28;20216;-71
2021/11/26 05:07:58;;;;;;;3.83;2.67;;;;;;;;;;5067874;28;20550;-71
2021/11/26 05:10:24;;;;;;;6.07;2.40;;;;;;;;;;5069272;28;20201;-73
2021/11/26 05:12:55;;;;;;;7.23;2.40;;;;;;;;;;5068532;28;20273;-73
2021/11/26 05:15:25;;;;;;;8.10;2.30;;;;;;;;;;5067095;28;20535;-73
2021/11/26 05:17:51;;;;;;;5.97;3.47;;;;;;;;;;5068749;28;20184;-72
2021/11/26 05:20:16;;;;;;;5.10;2.53;;;;;;;;;;5068472;28;20335;-71
2021/11/26 05:22:41;;;;;;;7.70;2.43;;;;;;;;;;5065931;28;20272;-71
2021/11/26 05:25:07;;;;;;;7.47;2.87;;;;;;;;;;5070218;28;20609;-72
2021/11/26 05:27:32;;;;;;;7.13;2.27;;;;;;;;;;5078412;28;20187;-72
2021/11/26 05:29:57;;;;;;;5.80;2.33;;;;;;;;;;5063510;28;20678;-71
2021/11/26 05:32:22;;;;;;;11.17;2.67;;;;;;;;;;5069089;28;20169;-72
2021/11/26 05:34:48;;;;;;;7.73;2.63;;;;;;;;;;5069376;28;20217;-71
2021/11/26 05:37:13;;;;;;;8.93;2.13;;;;;;;;;;5068774;28;20712;-71
2021/11/26 05:39:38;;;;;;;10.27;2.30;;;;;;;;;;5062065;28;20204;-71
2021/11/26 05:42:03;;;;;;;10.13;2.37;;;;;;;;;;5069867;28;20180;-71
2021/11/26 05:44:28;;;;;;;8.60;2.20;;;;;;;;;;5074830;28;20240;-73
2021/11/26 05:46:54;;;;;;;11.70;2.20;;;;;;;;;;5070388;28;20180;-72
2021/11/26 05:49:19;;;;;;;7.87;2.53;;;;;;;;;;5066792;28;20590;-73
2021/11/26 05:51:44;;;;;;;5.33;1.80;;;;;;;;;;5069670;28;20238;-72
2021/11/26 05:54:09;;;;;;;4.60;1.97;;;;;;;;;;5067952;28;20192;-72
2021/11/26 05:56:34;;;;;;;6.13;2.00;;;;;;;;;;5070084;28;20634;-73
2021/11/26 05:59:00;;;;;;;9.73;2.40;;;;;;;;;;5062092;28;20193;-72
2021/11/26 06:01:25;;;;;;;7.13;2.27;;;;;;;;;;5068424;28;20193;-72
2021/11/26 06:03:50;;;;;;;14.10;2.80;;;;;;;;;;5062905;28;20204;-74
2021/11/26 06:06:15;;;;;;;10.03;2.20;;;;;;;;;;5079726;28;20173;-71
2021/11/26 06:08:40;;;;;;;11.77;2.63;;;;;;;;;;5064713;28;20180;-72
2021/11/26 06:11:06;;;;;;;10.73;2.87;;;;;;;;;;5076465;28;20186;-71
2021/11/26 06:13:31;;;;;;;9.63;3.37;;;;;;;;;;5063697;28;20267;-73
2021/11/26 06:15:56;;;;;;;8.87;2.33;;;;;;;;;;5066260;28;20268;-72
2021/11/26 06:18:21;;;;;;;8.90;2.03;;;;;;;;;;5066612;28;20225;-71
2021/11/26 06:20:46;;;;;;;6.33;1.97;;;;;;;;;;5067311;28;20224;-73
2021/11/26 06:23:12;;;;;;;8.07;2.20;;;;;;;;;;5066616;28;20240;-72
2021/11/26 06:25:37;;;;;;;11.73;3.60;;;;;;;;;;5065517;28;21790;-71
2021/11/26 06:28:02;;;;;;;8.87;3.10;;;;;;;;;;5068373;28;20192;-71
2021/11/26 06:30:28;;;;;;;8.40;2.70;;;;;;;;;;5067284;28;20280;-71
2021/11/26 06:32:53;;;;;;;8.17;2.50;;;;;;;;;;5074108;28;20173;-71
2021/11/26 06:35:20;;;;;;;10.13;2.10;;;;;;;;;;5068044;28;20618;-72
2021/11/26 06:37:45;;;;;;;7.17;2.00;;;;;;;;;;5070159;28;20250;-71
2021/11/26 06:40:11;;;;;;;9.27;1.90;;;;;;;;;;5068468;28;20693;-73
2021/11/26 06:42:36;;;;;;;15.53;2.77;;;;;;;;;;5069557;28;20678;-72
2021/11/26 06:45:03;;;;;;;9.33;1.87;;;;;;;;;;5060821;28;20177;-71
2021/11/26 06:47:28;;;;;;;8.53;1.90;;;;;;;;;;5068344;28;20220;-71
2021/11/26 06:49:53;;;;;;;8.10;1.87;;;;;;;;;;5066221;28;20686;-73
2021/11/26 06:52:18;;;;;;;10.90;2.93;;;;;;;;;;5056904;28;20169;-71
2021/11/26 06:54:44;;;;;;;12.93;2.87;;;;;;;;;;5062055;28;20179;-72
2021/11/26 06:57:09;;;;;;;10.17;3.53;;;;;;;;;;5060969;28;20185;-71
2021/11/26 06:59:35;;;;;;;6.57;2.20;;;;;;;;;;5068360;28;20193;-71
2021/11/26 07:02:00;;;;;;;7.60;2.10;;;;;;;;;;5066541;28;20242;-72
2021/11/26 07:04:25;;;;;;;8.60;3.60;;;;;;;;;;5063981;28;20728;-72
2021/11/26 07:06:50;;;;;;;8.63;2.00;;;;;;;;;;5058246;28;20177;-72
2021/11/26 07:09:15;;;;;;;6.93;1.83;;;;;;;;;;5064601;28;20692;-72
2021/11/26 07:11:41;;;;;;;9.60;1.77;;;;;;;;;;5067262;28;20169;-72
2021/11/26 07:14:06;;;;;;;7.37;1.70;;;;;;;;;;5065378;28;20247;-71
2021/11/26 07:16:31;;;;;;;8.27;2.27;;;;;;;;;;5064100;28;20181;-72
2021/11/26 07:18:57;;;;;;;10.27;2.90;;;;;;;;;;5061155;28;20753;-73
2021/11/26 07:21:22;;;;;;;9.07;2.40;;;;;;;;;;5065567;28;20246;-71
2021/11/26 07:23:47;;;;;;;11.97;2.93;;;;;;;;;;5068051;28;20205;-72
2021/11/26 07:26:12;;;;;;;9.23;3.00;;;;;;;;;;5065805;28;20169;-72
2021/11/26 07:28:37;;;;;;;7.93;1.90;;;;;;;;;;5051139;28;20651;-72
2021/11/26 07:31:03;;;;;;;7.10;1.97;;;;;;;;;;5065503;28;20165;-71
2021/11/26 07:33:28;;;;;;;4.87;2.17;;;;;;;;;;5064117;28;20181;-74
2021/11/26 07:35:53;;;;;;;7.43;1.83;;;;;;;;;;5062295;28;20222;-71
2021/11/26 07:38:18;;;;;;;11.73;2.10;;;;;;;;;;5064185;28;20278;-72
2021/11/26 07:40:44;;;;;;;9.73;2.53;;;;;;;;;;5067268;28;20201;-71
2021/11/26 07:43:09;;;;;;;7.53;2.00;;;;;;;;;;5066299;28;20197;-72
2021/11/26 07:45:34;;;;;;;7.03;2.10;;;;;;;;;;5061896;28;20665;-73
2021/11/26 07:47:59;;;;;;;8.43;2.70;;;;;;;;;;5043557;28;20184;-73
2021/11/26 07:50:24;;;;;;;4.57;2.07;;;;;;;;;;5050413;28;20212;-72
2021/11/26 07:52:50;;;;;;;8.80;2.37;;;;;;;;;;5047930;28;20188;-72
2021/11/26 07:55:15;;;;;;;6.17;1.83;;;;;;;;;;5049349;28;20189;-71
2021/11/26 07:57:41;;;;;;;6.27;1.80;;;;;;;;;;5052385;28;20188;-72
2021/11/26 08:00:07;;;;;;;10.63;2.27;;;;;;;;;;5050692;28;20252;-74
2021/11/26 08:02:32;;;;;;;6.07;2.30;;;;;;;;;;5049520;28;20213;-72
2021/11/26 08:04:57;;;;;;;7.20;2.13;;;;;;;;;;5051253;28;20169;-72
2021/11/26 08:07:23;;;;;;;7.97;2.00;;;;;;;;;;5049666;28;20230;-72
2021/11/26 08:09:48;;;;;;;8.50;1.80;;;;;;;;;;5049008;28;20197;-72
2021/11/26 08:12:13;;;;;;;6.57;2.40;;;;;;;;;;5050779;28;21914;-72
2021/11/26 08:14:38;;;;;;;3.90;1.50;;;;;;;;;;5052092;28;20177;-74
2021/11/26 08:17:03;;;;;;;7.67;1.97;;;;;;;;;;5057332;28;20177;-71
2021/11/26 08:19:29;;;;;;;8.50;1.97;;;;;;;;;;5064803;22;20240;-74
2021/11/26 08:21:54;;;;;;;6.13;2.53;;;;;;;;;;5054805;28;20208;-73
2021/11/26 08:24:20;;;;;;;4.80;1.83;;;;;;;;;;5043528;28;20711;-73
2021/11/26 08:26:46;;;;;;;15.60;3.37;;;;;;;;;;5055082;28;20197;-73
2021/11/26 08:29:11;;;;;;;10.57;2.77;;;;;;;;;;5042112;28;20331;-74
2021/11/26 08:31:36;;;;;;;12.40;2.93;;;;;;;;;;5041462;28;20196;-73
2021/11/26 08:34:02;;;;;;;11.10;3.00;;;;;;;;;;5042912;28;20177;-73
2021/11/26 08:36:27;;;;;;;10.03;2.80;;;;;;;;;;5053787;28;20180;-72
2021/11/26 08:38:53;;;;;;;11.50;4.33;;;;;;;;;;5054396;28;20189;-74
2021/11/26 08:41:18;;;;;;;14.67;4.97;;;;;;;;;;5052086;28;20202;-72
2021/11/26 08:43:44;;;;;;;16.47;4.80;;;;;;;;;;5040086;28;20232;-73
2021/11/26 08:46:09;;;;;;;9.87;3.93;;;;;;;;;;5057856;28;20655;-73
2021/11/26 08:48:34;;;;;;;15.00;4.67;;;;;;;;;;5057576;28;20173;-73
2021/11/26 08:50:59;;;;;;;9.83;3.33;;;;;;;;;;5053463;28;20199;-73
2021/11/26 08:53:25;;;;;;;12.70;3.80;;;;;;;;;;5036906;28;20189;-73
2021/11/26 08:55:53;;;;;;;5.70;3.80;;;;;;;;;;5051525;28;20910;-74
2021/11/26 08:58:18;;;;;;;14.30;3.80;;;;;;;;;;5038198;28;20176;-74
2021/11/26 09:00:44;;;;;;;12.37;3.97;;;;;;;;;;5040104;28;20257;-74
2021/11/26 09:03:09;;;;;;;19.30;6.90;;;;;;;;;;5051232;28;20200;-74
2021/11/26 09:05:35;;;;;;;16.67;5.97;;;;;;;;;;5051461;28;20260;-74
2021/11/26 09:08:02;;;;;;;12.27;4.73;;;;;;;;;;5052185;28;20599;-74
2021/11/26 09:10:28;;;;;;;13.97;6.20;;;;;;;;;;5051044;28;20205;-74
2021/11/26 09:12:53;;;;;;;16.10;5.50;;;;;;;;;;5052290;28;20189;-74
2021/11/26 09:15:18;;;;;;;21.97;5.70;;;;;;;;;;5042070;28;20208;-73
2021/11/26 09:17:44;;;;;;;14.17;5.90;;;;;;;;;;5054899;28;20195;-73
2021/11/26 09:20:09;;;;;;;17.10;6.03;;;;;;;;;;5040162;28;20867;-73
2021/11/26 09:22:35;;;;;;;10.43;5.03;;;;;;;;;;5051445;28;20678;-75
2021/11/26 09:25:00;;;;;;;20.47;5.77;;;;;;;;;;5060553;28;20185;-73
2021/11/26 09:27:26;;;;;;;13.57;5.37;;;;;;;;;;5054935;28;20192;-74
2021/11/26 09:29:51;;;;;;;16.63;5.20;;;;;;;;;;5034441;28;20209;-74
2021/11/26 09:32:16;;;;;;;12.90;5.20;;;;;;;;;;5052645;28;20234;-74
2021/11/26 09:34:41;;;;;;;11.87;5.07;;;;;;;;;;5052871;28;20242;-74
2021/11/26 09:37:07;;;;;;;13.60;4.70;;;;;;;;;;5056073;28;20176;-72
2021/11/26 09:39:32;;;;;;;12.80;5.67;;;;;;;;;;5052166;28;20189;-73
2021/11/26 09:41:57;;;;;;;20.83;6.23;;;;;;;;;;5040744;28;20185;-71
2021/11/26 09:44:23;;;;;;;20.60;5.70;;;;;;;;;;5039802;28;20201;-73
2021/11/26 09:46:50;;;;;;;17.63;4.70;;;;;;;;;;5058445;28;20722;-73
2021/11/26 09:49:16;;;;;;;12.40;4.43;;;;;;;;;;5050005;28;20184;-72
2021/11/26 09:51:42;;;;;;;15.57;4.63;;;;;;;;;;5054833;28;20177;-73
2021/11/26 09:54:07;;;;;;;11.67;5.00;;;;;;;;;;5045737;28;20222;-73
2021/11/26 09:56:33;;;;;;;8.93;3.60;;;;;;;;;;5054971;28;20261;-73
2021/11/26 09:58:59;;;;;;;11.13;4.17;;;;;;;;;;5043330;28;20655;-74
2021/11/26 10:01:25;;;;;;;9.87;3.37;;;;;;;;;;5056160;28;20188;-72
2021/11/26 10:03:51;;;;;;;10.27;3.63;;;;;;;;;;5052485;28;20638;-74
2021/11/26 10:06:36;;;;;;;12.57;4.47;;;;;;;;;;5052879;28;20188;-74
2021/11/26 10:09:12;;;;;;;8.60;3.47;;;;;;;;;;5039467;28;20181;-74
2021/11/26 10:11:43;;;;;;;11.50;3.83;;;;;;;;;;5035947;28;20658;-72
2021/11/26 10:14:16;;;;;;;11.47;3.97;;;;;;;;;;5052315;28;21006;-71
2021/11/26 10:16:42;;;;;;;6.60;3.17;;;;;;;;;;5037213;28;20185;-70
2021/11/26 10:19:07;;;;;;;9.77;4.80;;;;;;;;;;5050446;28;20177;-73
2021/11/26 10:21:32;;;;;;;12.90;5.53;;;;;;;;;;5042610;28;20187;-72
2021/11/26 10:23:57;;;;;;;11.47;4.67;;;;;;;;;;5049251;28;20248;-71
2021/11/26 10:26:24;;;;;;;8.60;3.00;;;;;;;;;;5052637;28;20219;-73
2021/11/26 10:28:52;;;;;;;15.73;4.53;;;;;;;;;;5053013;28;20701;-73
2021/11/26 10:31:19;;;;;;;9.87;3.00;;;;;;;;;;5038566;28;20297;-73
2021/11/26 10:33:44;;;;;;;12.20;3.40;;;;;;;;;;5050709;28;20181;-71
2021/11/26 10:36:10;;;;;;;13.53;4.23;;;;;;;;;;5052251;28;20217;-73
2021/11/26 10:38:36;;;;;;;7.63;2.70;;;;;;;;;;5054785;28;20243;-74
2021/11/26 10:41:04;;;;;;;8.00;2.63;;;;;;;;;;5053669;28;20678;-73
2021/11/26 10:43:40;;;;;;;8.77;3.37;;;;;;;;;;5053622;28;20201;-74
2021/11/26 10:59:31;;;;;;;6.83;2.53;;;;;;;;;;5051910;28;20212;-73
2021/11/26 11:01:57;;;;;;;6.57;2.70;;;;;;;;;;5050690;28;20212;-72
2021/11/26 11:04:23;;;;;;;8.07;2.77;;;;;;;;;;5049073;28;20701;-73
2021/11/26 11:06:55;;;;;;;9.13;3.03;;;;;;;;;;5051012;28;20287;-73
2021/11/26 11:09:20;;;;;;;8.27;2.70;;;;;;;;;;5047765;28;20204;-72
2021/11/26 11:11:50;;;;;;;9.47;3.13;;;;;;;;;;5051823;28;20173;-74
2021/11/26 11:14:17;;;;;;;7.37;2.57;;;;;;;;;;5051587;28;20548;-73
2021/11/26 11:16:50;;;;;;;9.13;2.80;;;;;;;;;;5039663;28;20239;-73
2021/11/26 11:19:15;;;;;;;7.57;2.20;;;;;;;;;;5039587;28;20666;-73
2021/11/26 11:21:42;;;;;;;9.10;3.03;;;;;;;;;;5051351;28;20191;-73
2021/11/26 11:24:08;;;;;;;7.40;1.93;;;;;;;;;;5049979;28;20204;-73
2021/11/26 11:26:33;;;;;;;6.87;2.20;;;;;;;;;;5054099;28;20208;-73
2021/11/26 11:29:00;;;;;;;13.03;4.03;;;;;;;;;;5051688;28;20726;-73
2021/11/26 11:31:25;;;;;;;6.47;4.00;;;;;;;;;;5061078;28;20181;-73
2021/11/26 11:33:51;;;;;;;7.67;2.90;;;;;;;;;;5050094;28;20197;-73
2021/11/26 11:36:16;;;;;;;9.43;2.60;;;;;;;;;;5052712;28;20317;-71
2021/11/26 11:38:42;;;;;;;7.53;2.43;;;;;;;;;;5049287;28;23318;-73
2021/11/26 11:41:08;;;;;;;8.87;2.70;;;;;;;;;;5051419;28;20623;-73
2021/11/26 11:43:43;;;;;;;8.43;3.00;;;;;;;;;;5051275;28;20204;-73
2021/11/26 11:46:11;;;;;;;8.30;4.00;;;;;;;;;;5053454;28;20180;-73
2021/11/26 11:48:38;;;;;;;11.50;4.13;;;;;;;;;;5054614;28;20180;-73
2021/11/26 11:51:08;;;;;;;5.73;3.30;;;;;;;;;;5053485;28;20209;-72
2021/11/26 11:53:36;;;;;;;5.47;3.73;;;;;;;;;;5053361;28;20251;-72
2021/11/26 11:56:09;;;;;;;8.73;4.47;;;;;;;;;;5054908;28;20181;-72
2021/11/26 11:58:54;;;;;;;10.07;4.70;;;;;;;;;;5057884;28;20555;-73
2021/11/26 12:01:24;;;;;;;9.30;4.60;;;;;;;;;;5056415;28;20207;-73
2021/11/26 12:03:50;;;;;;;9.50;5.17;;;;;;;;;;5054943;28;20185;-72
2021/11/26 12:06:16;;;;;;;11.37;5.10;;;;;;;;;;5043828;28;20188;-72
2021/11/26 12:08:45;;;;;;;15.47;5.13;;;;;;;;;;5055607;28;20173;-72
2021/11/26 12:11:21;;;;;;;8.77;4.70;;;;;;;;;;5055959;28;20204;-73
2021/11/26 12:13:57;;;;;;;8.57;4.63;;;;;;;;;;5053484;28;20661;-72
2021/11/26 12:16:24;;;;;;;7.17;5.20;;;;;;;;;;5058849;28;20177;-74
2021/11/26 12:18:50;;;;;;;10.87;4.73;;;;;;;;;;5054631;28;20319;-73
2021/11/26 12:21:17;;;;;;;9.13;4.33;;;;;;;;;;5054046;28;20251;-73
2021/11/26 12:23:59;;;;;;;4.97;3.87;;;;;;;;;;5037056;28;20205;-72
2021/11/26 12:26:31;;;;;;;6.83;3.90;;;;;;;;;;5057248;28;20177;-72
2021/11/26 12:29:03;;;;;;;5.20;3.43;;;;;;;;;;5060651;28;20180;-73
2021/11/26 12:31:30;;;;;;;9.53;3.90;;;;;;;;;;5046942;28;20181;-73
2021/11/26 12:33:56;;;;;;;6.80;3.80;;;;;;;;;;5042965;28;20216;-73
2021/11/26 12:36:21;;;;;;;5.60;3.73;;;;;;;;;;5054153;28;20231;-73
2021/11/26 12:38:51;;;;;;;6.73;3.57;;;;;;;;;;5053659;28;20204;-72
2021/11/26 12:41:49;;;;;;;10.37;4.00;;;;;;;;;;5054209;28;20224;-73
2021/11/26 12:44:20;;;;;;;3.50;2.83;;;;;;;;;;5006366;28;20262;-72
2021/11/26 12:46:46;;;;;;;6.00;2.93;;;;;;;;;;5059443;28;20187;-73
2021/11/26 12:52:05;;;;;;;5.60;3.07;;;;;;;;;;5056561;28;20212;-73
2021/11/26 12:54:32;;;;;;;5.23;3.47;;;;;;;;;;5036832;28;21850;-71
2021/11/26 12:57:00;;;;;;;4.90;3.73;;;;;;;;;;5055455;28;20181;-72
2021/11/26 12:59:30;;;;;;;5.70;3.17;;;;;;;;;;5035065;28;20688;-72
2021/11/26 13:01:55;;;;;;;3.63;3.17;;;;;;;;;;5054692;28;20260;-73
2021/11/26 13:04:20;;;;;;;6.10;3.07;;;;;;;;;;5065568;28;20652;-73
2021/11/26 13:06:45;;;;;;;6.40;3.60;;;;;;;;;;5054881;28;20288;-75
2021/11/26 13:09:11;;;;;;;4.37;3.57;;;;;;;;;;5055806;28;20225;-71
2021/11/26 13:11:44;;;;;;;6.77;3.93;;;;;;;;;;5043310;28;20188;-73
2021/11/26 13:14:09;;;;;;;6.40;3.90;;;;;;;;;;5053852;28;20194;-73
2021/11/26 13:16:36;;;;;;;5.33;2.77;;;;;;;;;;5066963;28;20208;-73
2021/11/26 13:19:01;;;;;;;3.67;3.00;;;;;;;;;;5051948;28;20207;-73
2021/11/26 13:21:27;;;;;;;5.67;3.03;;;;;;;;;;5052284;28;20259;-73
2021/11/26 13:23:52;;;;;;;7.57;3.40;;;;;;;;;;5052814;28;20214;-73
2021/11/26 13:26:17;;;;;;;4.60;3.33;;;;;;;;;;5040482;28;21540;-74
2021/11/26 13:28:44;;;;;;;4.63;3.20;;;;;;;;;;5042569;28;20180;-73
2021/11/26 13:31:11;;;;;;;10.70;3.50;;;;;;;;;;5039118;28;20228;-73
2021/11/26 13:33:37;;;;;;;4.23;3.13;;;;;;;;;;5052274;28;20205;-73
2021/11/26 13:36:07;;;;;;;4.27;3.20;;;;;;;;;;5052137;28;20180;-73
2021/11/26 13:38:40;;;;;;;4.07;3.53;;;;;;;;;;5056129;28;20177;-73
2021/11/26 13:41:14;;;;;;;5.37;3.10;;;;;;;;;;5040880;28;20193;-74
2021/11/26 13:43:40;;;;;;;6.20;3.63;;;;;;;;;;5052569;28;20820;-73
2021/11/26 13:46:05;;;;;;;3.60;3.17;;;;;;;;;;5036785;28;20243;-72
2021/11/26 13:48:35;;;;;;;3.93;2.93;;;;;;;;;;5052211;28;20180;-74
2021/11/26 13:51:01;;;;;;;4.50;3.10;;;;;;;;;;5051309;28;20201;-74
2021/11/26 13:53:26;;;;;;;5.70;3.43;;;;;;;;;;5051091;28;20251;-74
2021/11/26 13:55:52;;;;;;;3.50;3.00;;;;;;;;;;5035912;28;20185;-74
2021/11/26 13:58:17;;;;;;;4.50;2.97;;;;;;;;;;5050532;28;20188;-73
2021/11/26 14:00:45;;;;;;;6.37;3.70;;;;;;;;;;5040760;28;20206;-74
2021/11/26 14:03:11;;;;;;;4.30;3.23;;;;;;;;;;5051620;28;20197;-73
2021/11/26 14:05:37;;;;;;;4.50;3.30;;;;;;;;;;5036771;28;20180;-72
2021/11/26 14:08:05;;;;;;;3.80;3.27;;;;;;;;;;5048297;28;20213;-74
2021/11/26 14:10:31;;;;;;;5.00;3.20;;;;;;;;;;5048819;28;20205;-75
2021/11/26 14:12:57;;;;;;;3.20;2.90;;;;;;;;;;5051154;28;20649;-74
2021/11/26 14:15:22;;;;;;;4.67;3.70;;;;;;;;;;5041658;28;20190;-75
2021/11/26 14:17:48;;;;;;;4.10;3.30;;;;;;;;;;5056155;28;20665;-74
2021/11/26 14:20:13;;;;;;;6.60;3.60;;;;;;;;;;5052131;28;20216;-74
2021/11/26 14:22:41;;;;;;;5.30;3.63;;;;;;;;;;5040207;28;20667;-73
2021/11/26 14:25:07;;;;;;;4.20;3.80;;;;;;;;;;5051454;28;20584;-72
2021/11/26 14:27:35;;;;;;;9.97;5.47;;;;;;;;;;5051308;28;20260;-72
2021/11/26 14:30:04;;;;;;;4.20;3.80;;;;;;;;;;5057734;28;20585;-73
2021/11/26 14:32:30;;;;;;;6.77;4.27;;;;;;;;;;5053764;28;20689;-73
2021/11/26 14:35:02;;;;;;;7.27;4.87;;;;;;;;;;5050216;28;20188;-73
2021/11/26 14:37:27;;;;;;;6.23;4.20;;;;;;;;;;5050860;28;20212;-73
2021/11/26 14:39:52;;;;;;;5.43;4.50;;;;;;;;;;5050839;28;20209;-74
2021/11/26 14:42:18;;;;;;;4.83;4.43;;;;;;;;;;5048536;28;21290;-73
2021/11/26 14:44:44;;;;;;;6.17;5.07;;;;;;;;;;5035703;28;20310;-74
2021/11/26 14:47:10;;;;;;;6.23;5.63;;;;;;;;;;5054802;28;20545;-73
2021/11/26 14:49:35;;;;;;;7.53;6.63;;;;;;;;;;5054225;28;20284;-73
2021/11/26 14:52:02;;;;;;;6.28;5.68;;;;;;;;;;5052238;28;20172;-76